Time;durP1;ratioP1;P1;durP2;ratioP2;P2;SDS_P1;SDS_P2;PMS_P1;PMS_P2;Temp;Humidity;BMP_temperature;BMP_pressure;BME280_temperature;BME280_humidity;BME280_pressure;Samples;Min_cycle;Max_cycle;Signal;HPM_P1;HPM_P2
2022/12/27 00:02:03;;;;;;;16.23;3.72;;;;;;;;;;5078228;28;20052;-66
2022/12/27 00:04:29;;;;;;;12.70;4.07;;;;;;;;;;5105045;28;20040;-67
2022/12/27 00:06:55;;;;;;;17.88;2.83;;;;;;;;;;5104366;28;20348;-67
2022/12/27 00:09:21;;;;;;;21.17;3.15;;;;;;;;;;5101259;28;20051;-67
2022/12/27 00:11:47;;;;;;;12.07;2.55;;;;;;;;;;5103808;28;20038;-67
2022/12/27 00:14:14;;;;;;;16.15;2.70;;;;;;;;;;5106521;28;20089;-67
2022/12/27 00:16:40;;;;;;;15.88;3.85;;;;;;;;;;5106507;28;20433;-67
2022/12/27 00:19:06;;;;;;;23.27;3.65;;;;;;;;;;5085307;28;20055;-67
2022/12/27 00:21:33;;;;;;;17.25;2.22;;;;;;;;;;5100497;28;20500;-67
2022/12/27 00:24:00;;;;;;;14.82;2.40;;;;;;;;;;5104881;28;20032;-67
2022/12/27 00:26:27;;;;;;;14.25;2.47;;;;;;;;;;5105321;28;20057;-66
2022/12/27 00:28:53;;;;;;;10.68;2.28;;;;;;;;;;5086749;28;20047;-68
2022/12/27 00:31:20;;;;;;;16.75;3.55;;;;;;;;;;5107075;28;20086;-67
2022/12/27 00:33:47;;;;;;;20.23;3.55;;;;;;;;;;5105120;28;20054;-67
2022/12/27 00:36:15;;;;;;;21.88;2.50;;;;;;;;;;5105675;28;20039;-67
2022/12/27 00:38:41;;;;;;;16.50;3.78;;;;;;;;;;5103665;28;20106;-67
2022/12/27 00:41:07;;;;;;;26.25;3.38;;;;;;;;;;5107440;28;20142;-67
2022/12/27 00:43:34;;;;;;;15.45;2.58;;;;;;;;;;5106497;28;20081;-67
2022/12/27 00:46:00;;;;;;;22.15;2.53;;;;;;;;;;5099789;28;20119;-67
2022/12/27 00:48:26;;;;;;;14.73;2.50;;;;;;;;;;5086189;28;20063;-67
2022/12/27 00:51:01;;;;;;;20.45;3.08;;;;;;;;;;5107346;28;20542;-67
2022/12/27 00:53:28;;;;;;;19.80;2.75;;;;;;;;;;5108194;28;20505;-67
2022/12/27 00:55:54;;;;;;;17.73;2.78;;;;;;;;;;5089876;28;20043;-67
2022/12/27 00:58:20;;;;;;;20.77;3.83;;;;;;;;;;5107762;28;20126;-66
2022/12/27 01:00:46;;;;;;;14.32;2.60;;;;;;;;;;5099694;28;20090;-67
2022/12/27 01:03:13;;;;;;;24.50;2.60;;;;;;;;;;5104773;28;20082;-66
2022/12/27 01:05:39;;;;;;;20.17;4.15;;;;;;;;;;5082705;28;20500;-67
2022/12/27 01:08:05;;;;;;;17.23;2.78;;;;;;;;;;5105140;28;20044;-67
2022/12/27 01:10:32;;;;;;;10.27;2.35;;;;;;;;;;5105578;28;20046;-67
2022/12/27 01:13:00;;;;;;;16.05;2.42;;;;;;;;;;5085272;28;20040;-67
2022/12/27 01:15:26;;;;;;;29.27;3.53;;;;;;;;;;5105330;28;20035;-66
2022/12/27 01:17:52;;;;;;;20.02;3.72;;;;;;;;;;5082990;28;20487;-67
2022/12/27 01:20:18;;;;;;;18.63;2.42;;;;;;;;;;5102323;28;20477;-67
2022/12/27 01:22:45;;;;;;;15.80;2.60;;;;;;;;;;5084255;28;20077;-67
2022/12/27 01:25:11;;;;;;;20.38;3.70;;;;;;;;;;5101462;28;20045;-67
2022/12/27 01:27:37;;;;;;;20.48;2.90;;;;;;;;;;5102030;28;20040;-67
2022/12/27 01:30:05;;;;;;;14.57;2.85;;;;;;;;;;5085357;28;20457;-67
2022/12/27 01:32:33;;;;;;;13.27;2.55;;;;;;;;;;5099707;28;20035;-67
2022/12/27 01:34:59;;;;;;;19.77;3.35;;;;;;;;;;5100530;28;20055;-67
2022/12/27 01:37:27;;;;;;;17.27;2.60;;;;;;;;;;5104357;28;20032;-67
2022/12/27 01:39:53;;;;;;;13.10;2.38;;;;;;;;;;5099329;28;20044;-67
2022/12/27 01:45:13;;;;;;;14.77;3.00;;;;;;;;;;5098662;28;20394;-66
2022/12/27 01:47:46;;;;;;;15.35;3.17;;;;;;;;;;5105464;28;20048;-67
2022/12/27 01:50:15;;;;;;;14.97;2.53;;;;;;;;;;5105818;28;20605;-67
2022/12/27 01:52:42;;;;;;;12.70;2.67;;;;;;;;;;5090051;28;20074;-67
2022/12/27 01:55:14;;;;;;;19.20;2.72;;;;;;;;;;5106232;28;20093;-67
2022/12/27 01:57:40;;;;;;;16.92;2.38;;;;;;;;;;5108157;28;20039;-67
2022/12/27 02:00:07;;;;;;;16.20;2.20;;;;;;;;;;5088543;28;20050;-67
2022/12/27 02:02:33;;;;;;;8.32;1.80;;;;;;;;;;5068186;28;20081;-67
2022/12/27 02:04:59;;;;;;;18.13;2.75;;;;;;;;;;5073873;28;20036;-67
2022/12/27 02:07:30;;;;;;;18.58;2.78;;;;;;;;;;5107016;28;20041;-67
2022/12/27 02:09:58;;;;;;;24.05;3.13;;;;;;;;;;5103678;28;20459;-67
2022/12/27 02:12:25;;;;;;;20.20;3.65;;;;;;;;;;5102904;28;20388;-67
2022/12/27 02:14:51;;;;;;;11.82;1.77;;;;;;;;;;5102123;28;20040;-67
2022/12/27 02:17:18;;;;;;;12.50;2.15;;;;;;;;;;5108488;28;20084;-67
2022/12/27 02:19:47;;;;;;;18.05;2.28;;;;;;;;;;5108159;28;20040;-67
2022/12/27 02:22:21;;;;;;;17.55;2.60;;;;;;;;;;5105967;28;20544;-67
2022/12/27 02:24:55;;;;;;;12.70;2.30;;;;;;;;;;5109518;28;20084;-67
2022/12/27 02:27:21;;;;;;;;;;;;;;;;;;5086345;28;20268;-67
2022/12/27 02:29:48;;;;;;;18.90;2.13;;;;;;;;;;5086385;28;20420;-67
2022/12/27 02:32:20;;;;;;;11.30;2.40;;;;;;;;;;5088281;28;20035;-67
2022/12/27 02:34:50;;;;;;;15.60;2.47;;;;;;;;;;5090698;28;20451;-67
2022/12/27 02:37:18;;;;;;;15.98;3.70;;;;;;;;;;5107327;28;20082;-67
2022/12/27 02:39:46;;;;;;;12.65;2.60;;;;;;;;;;5092695;28;20533;-66
2022/12/27 02:53:33;;;;;;;13.25;2.33;;;;;;;;;;5086071;28;20398;-67
2022/12/27 02:59:09;;;;;;;12.23;2.88;;;;;;;;;;5088664;28;20062;-67
2022/12/27 03:04:58;;;;;;;16.40;2.30;;;;;;;;;;5107763;28;20043;-66
2022/12/27 03:07:35;;;;;;;9.68;1.92;;;;;;;;;;5085649;28;20044;-67
2022/12/27 03:15:54;;;;;;;18.75;2.78;;;;;;;;;;5109293;28;20130;-66
2022/12/27 03:18:26;;;;;;;14.35;2.45;;;;;;;;;;5106293;28;20048;-67
2022/12/27 03:26:26;;;;;;;18.02;3.20;;;;;;;;;;5106238;28;20040;-67
2022/12/27 03:34:34;;;;;;;13.18;2.60;;;;;;;;;;5090356;28;20383;-67
2022/12/27 03:39:54;;;;;;;14.63;2.92;;;;;;;;;;5106986;28;20036;-67
2022/12/27 03:45:08;;;;;;;18.73;2.20;;;;;;;;;;5087781;28;20051;-67
2022/12/27 03:47:42;;;;;;;13.80;2.33;;;;;;;;;;5085888;28;20479;-67
2022/12/27 03:50:13;;;;;;;9.40;2.28;;;;;;;;;;5104561;28;20051;-67
2022/12/27 03:52:40;;;;;;;16.02;2.50;;;;;;;;;;5087096;28;20059;-67
2022/12/27 03:55:07;;;;;;;16.38;2.53;;;;;;;;;;5087870;28;20115;-67
2022/12/27 03:57:33;;;;;;;20.40;3.35;;;;;;;;;;5105460;28;20636;-67
2022/12/27 03:59:59;;;;;;;10.68;2.58;;;;;;;;;;5104325;28;20467;-67
2022/12/27 04:02:25;;;;;;;10.15;2.45;;;;;;;;;;5084235;28;20096;-67
2022/12/27 04:04:51;;;;;;;17.88;2.53;;;;;;;;;;5104579;28;20039;-67
2022/12/27 04:07:17;;;;;;;23.10;3.08;;;;;;;;;;5107822;28;20054;-67
2022/12/27 04:34:42;;;;;;;17.98;3.30;;;;;;;;;;5088692;28;20051;-67
2022/12/27 04:37:13;;;;;;;21.33;3.70;;;;;;;;;;5105274;28;20377;-67
2022/12/27 04:39:39;;;;;;;18.20;2.88;;;;;;;;;;5101822;28;20337;-67
2022/12/27 04:55:59;;;;;;;19.85;4.18;;;;;;;;;;5106907;28;20040;-67
2022/12/27 04:58:25;;;;;;;24.38;4.03;;;;;;;;;;5088133;28;20463;-67
2022/12/27 05:03:37;;;;;;;22.55;2.72;;;;;;;;;;5104035;28;20122;-67
2022/12/27 05:06:03;;;;;;;17.55;2.80;;;;;;;;;;5078520;28;20051;-67
2022/12/27 05:14:14;;;;;;;26.10;3.70;;;;;;;;;;5100467;28;20102;-67
2022/12/27 05:16:41;;;;;;;15.57;2.78;;;;;;;;;;5102353;28;20044;-67
2022/12/27 05:19:08;;;;;;;22.08;4.00;;;;;;;;;;5105799;28;20394;-67
2022/12/27 05:21:35;;;;;;;21.10;4.13;;;;;;;;;;5104774;28;20091;-68
2022/12/27 05:26:46;;;;;;;17.10;4.00;;;;;;;;;;5086028;28;20039;-67
2022/12/27 05:29:12;;;;;;;18.90;3.10;;;;;;;;;;5082456;28;20083;-67
2022/12/27 05:31:38;;;;;;;17.58;2.70;;;;;;;;;;5102844;28;20055;-67
2022/12/27 05:34:05;;;;;;;23.38;3.60;;;;;;;;;;5103602;28;20579;-67
2022/12/27 05:36:32;;;;;;;15.55;2.40;;;;;;;;;;5085521;28;20051;-67
2022/12/27 05:38:58;;;;;;;18.02;2.92;;;;;;;;;;5105057;28;20116;-67
2022/12/27 05:41:24;;;;;;;23.95;2.75;;;;;;;;;;5100624;28;20047;-67
2022/12/27 05:43:51;;;;;;;13.35;2.90;;;;;;;;;;5106106;28;20054;-67
2022/12/27 05:46:19;;;;;;;16.15;2.75;;;;;;;;;;5087246;28;20075;-68
2022/12/27 05:48:45;;;;;;;10.18;2.20;;;;;;;;;;5085800;28;20061;-67
2022/12/27 05:51:13;;;;;;;12.18;2.15;;;;;;;;;;5102846;28;20043;-65
2022/12/27 05:53:39;;;;;;;23.23;2.72;;;;;;;;;;5104774;28;20066;-65
2022/12/27 05:56:05;;;;;;;14.48;3.28;;;;;;;;;;5087722;28;20047;-65
2022/12/27 05:58:32;;;;;;;16.40;2.78;;;;;;;;;;5103900;28;20039;-65
2022/12/27 06:00:59;;;;;;;13.88;2.80;;;;;;;;;;5102132;28;20130;-65
2022/12/27 06:03:26;;;;;;;10.32;2.00;;;;;;;;;;5103460;28;20058;-65
2022/12/27 06:05:52;;;;;;;11.85;3.35;;;;;;;;;;5102624;28;20632;-65
2022/12/27 06:08:18;;;;;;;16.05;3.70;;;;;;;;;;5102527;28;20122;-65
2022/12/27 06:10:44;;;;;;;17.55;2.78;;;;;;;;;;5104052;28;20372;-65
2022/12/27 06:13:11;;;;;;;17.55;3.20;;;;;;;;;;5107216;28;20054;-65
2022/12/27 06:15:37;;;;;;;19.75;3.72;;;;;;;;;;5104425;28;20110;-65
2022/12/27 06:18:05;;;;;;;17.80;2.53;;;;;;;;;;5088315;28;20043;-65
2022/12/27 06:20:31;;;;;;;13.15;2.40;;;;;;;;;;5102420;28;20116;-65
2022/12/27 06:22:59;;;;;;;16.00;3.15;;;;;;;;;;5080765;28;20056;-65
2022/12/27 06:25:25;;;;;;;11.43;2.58;;;;;;;;;;5106930;28;20125;-65
2022/12/27 06:27:51;;;;;;;21.63;3.55;;;;;;;;;;5105410;28;20047;-65
2022/12/27 06:30:17;;;;;;;21.35;2.70;;;;;;;;;;5104732;28;20047;-65
2022/12/27 06:32:43;;;;;;;15.02;2.60;;;;;;;;;;5085025;28;20045;-65
2022/12/27 06:35:10;;;;;;;18.45;2.90;;;;;;;;;;5104661;28;20044;-65
2022/12/27 06:37:36;;;;;;;23.13;2.83;;;;;;;;;;5105417;28;20039;-65
2022/12/27 06:40:02;;;;;;;24.17;2.70;;;;;;;;;;5105939;28;20051;-65
2022/12/27 06:42:29;;;;;;;17.10;2.78;;;;;;;;;;5080189;28;20094;-65
2022/12/27 06:44:56;;;;;;;26.05;5.07;;;;;;;;;;5101640;28;20079;-65
2022/12/27 06:47:22;;;;;;;19.38;2.70;;;;;;;;;;5104787;28;20343;-65
2022/12/27 06:49:48;;;;;;;19.70;3.05;;;;;;;;;;5105998;28;20493;-65
2022/12/27 06:52:14;;;;;;;21.77;3.72;;;;;;;;;;5110028;28;20071;-66
2022/12/27 06:54:40;;;;;;;25.50;2.35;;;;;;;;;;5088432;28;20043;-65
2022/12/27 06:57:06;;;;;;;15.35;2.28;;;;;;;;;;5105407;28;20637;-65
2022/12/27 06:59:32;;;;;;;14.05;3.13;;;;;;;;;;5088165;28;20402;-65
2022/12/27 07:01:59;;;;;;;11.48;3.22;;;;;;;;;;5089665;28;20167;-65
2022/12/27 07:04:25;;;;;;;14.68;3.60;;;;;;;;;;5105769;28;20047;-66
2022/12/27 07:06:51;;;;;;;16.67;3.00;;;;;;;;;;5084635;28;20410;-66
2022/12/27 07:09:17;;;;;;;14.82;2.40;;;;;;;;;;5091913;28;20046;-66
2022/12/27 07:11:44;;;;;;;13.43;2.80;;;;;;;;;;5105981;28;20047;-66
2022/12/27 07:14:10;;;;;;;19.88;3.47;;;;;;;;;;5106848;28;20047;-66
2022/12/27 07:16:36;;;;;;;20.08;3.05;;;;;;;;;;5086442;28;20123;-66
2022/12/27 07:19:03;;;;;;;14.52;2.75;;;;;;;;;;5088494;28;20387;-66
2022/12/27 07:21:29;;;;;;;17.38;2.92;;;;;;;;;;5082500;28;20093;-66
2022/12/27 07:23:55;;;;;;;12.10;2.97;;;;;;;;;;5086590;28;20182;-66
2022/12/27 07:26:23;;;;;;;14.73;3.00;;;;;;;;;;5088228;28;20118;-66
2022/12/27 07:28:49;;;;;;;20.33;3.75;;;;;;;;;;5088225;28;20127;-66
2022/12/27 07:31:17;;;;;;;12.40;1.95;;;;;;;;;;5107068;28;20032;-66
2022/12/27 07:33:43;;;;;;;15.95;2.47;;;;;;;;;;5090986;28;20048;-66
2022/12/27 07:36:13;;;;;;;21.35;3.22;;;;;;;;;;5086685;28;20073;-66
2022/12/27 07:38:39;;;;;;;15.65;2.90;;;;;;;;;;5109208;28;20043;-66
2022/12/27 07:41:05;;;;;;;17.75;2.85;;;;;;;;;;5089246;28;20040;-66
2022/12/27 07:43:32;;;;;;;14.77;2.97;;;;;;;;;;5109213;28;20056;-66
2022/12/27 07:46:17;;;;;;;18.23;3.03;;;;;;;;;;5104633;28;20040;-66
2022/12/27 07:48:44;;;;;;;17.77;3.25;;;;;;;;;;5108271;28;20491;-66
2022/12/27 07:51:10;;;;;;;14.50;2.72;;;;;;;;;;5091132;28;20506;-66
2022/12/27 07:53:37;;;;;;;20.58;2.80;;;;;;;;;;5089677;28;20043;-66
2022/12/27 07:56:10;;;;;;;14.50;3.17;;;;;;;;;;5107895;28;20059;-66
2022/12/27 07:58:37;;;;;;;14.73;2.95;;;;;;;;;;5108937;28;20036;-66
2022/12/27 08:01:04;;;;;;;28.65;5.20;;;;;;;;;;5108738;28;20051;-66
2022/12/27 08:03:30;;;;;;;16.13;3.13;;;;;;;;;;5087330;28;20392;-66
2022/12/27 08:05:56;;;;;;;15.85;3.00;;;;;;;;;;5088570;28;20050;-66
2022/12/27 08:08:24;;;;;;;18.23;2.60;;;;;;;;;;5088599;28;20563;-66
2022/12/27 08:10:50;;;;;;;15.13;3.35;;;;;;;;;;5072053;28;20051;-66
2022/12/27 08:13:16;;;;;;;15.13;2.30;;;;;;;;;;5105884;28;20051;-66
2022/12/27 08:15:43;;;;;;;14.63;2.55;;;;;;;;;;5104820;28;20039;-66
2022/12/27 08:18:09;;;;;;;17.30;2.88;;;;;;;;;;5088679;28;20475;-66
2022/12/27 08:20:36;;;;;;;11.65;2.30;;;;;;;;;;5087775;28;20040;-66
2022/12/27 08:23:02;;;;;;;19.27;3.17;;;;;;;;;;5104080;28;20088;-66
2022/12/27 08:25:28;;;;;;;18.85;3.50;;;;;;;;;;5108605;28;20467;-66
2022/12/27 08:28:02;;;;;;;11.75;2.50;;;;;;;;;;5087368;28;20047;-67
2022/12/27 08:30:29;;;;;;;18.77;3.22;;;;;;;;;;5106192;28;20035;-66
2022/12/27 08:32:55;;;;;;;14.40;3.17;;;;;;;;;;5106602;28;20043;-66
2022/12/27 08:35:21;;;;;;;14.50;2.08;;;;;;;;;;5108540;28;20031;-66
2022/12/27 08:37:47;;;;;;;20.05;2.33;;;;;;;;;;5107938;28;20081;-66
2022/12/27 08:40:14;;;;;;;18.85;3.25;;;;;;;;;;5105104;28;20476;-66
2022/12/27 08:42:40;;;;;;;16.13;2.80;;;;;;;;;;5103543;28;20047;-66
2022/12/27 08:45:06;;;;;;;14.02;2.58;;;;;;;;;;5089890;28;20092;-66
2022/12/27 08:47:32;;;;;;;14.75;3.25;;;;;;;;;;5088337;28;20051;-66
2022/12/27 08:49:59;;;;;;;14.82;2.42;;;;;;;;;;5104717;28;20067;-66
2022/12/27 08:52:25;;;;;;;26.70;3.58;;;;;;;;;;5105384;28;20379;-67
2022/12/27 08:54:51;;;;;;;14.48;3.25;;;;;;;;;;5104921;28;20440;-66
2022/12/27 08:57:17;;;;;;;14.18;3.17;;;;;;;;;;5104565;28;20040;-66
2022/12/27 08:59:43;;;;;;;13.20;2.60;;;;;;;;;;5105411;28;20042;-66
2022/12/27 09:02:13;;;;;;;14.38;2.72;;;;;;;;;;5107390;28;20051;-66
2022/12/27 09:04:39;;;;;;;14.10;2.17;;;;;;;;;;5103855;28;20043;-66
2022/12/27 09:07:05;;;;;;;24.80;3.88;;;;;;;;;;5108002;28;20043;-66
2022/12/27 09:09:31;;;;;;;16.38;3.28;;;;;;;;;;5104153;28;20390;-66
2022/12/27 09:11:57;;;;;;;20.38;3.13;;;;;;;;;;5083545;28;20525;-66
2022/12/27 09:14:23;;;;;;;16.35;4.18;;;;;;;;;;5089531;28;20089;-66
2022/12/27 09:16:49;;;;;;;22.00;3.55;;;;;;;;;;5103623;28;20039;-66
2022/12/27 09:19:16;;;;;;;14.60;3.08;;;;;;;;;;5104480;28;20040;-66
2022/12/27 09:21:42;;;;;;;17.75;2.85;;;;;;;;;;5107177;28;20461;-66
2022/12/27 09:24:10;;;;;;;13.18;2.63;;;;;;;;;;5103569;28;21461;-66
2022/12/27 09:26:37;;;;;;;19.65;2.83;;;;;;;;;;5106434;28;20097;-66
2022/12/27 09:29:03;;;;;;;15.65;3.03;;;;;;;;;;5102966;28;20039;-66
2022/12/27 09:31:29;;;;;;;14.27;3.38;;;;;;;;;;5104177;28;20142;-66
2022/12/27 09:33:56;;;;;;;17.80;3.58;;;;;;;;;;5107075;28;20176;-66
2022/12/27 09:36:24;;;;;;;21.20;3.50;;;;;;;;;;5098991;28;20084;-66
2022/12/27 09:38:51;;;;;;;16.63;3.03;;;;;;;;;;5104277;28;20545;-66
2022/12/27 09:41:21;;;;;;;17.05;2.67;;;;;;;;;;5104592;28;20494;-66
2022/12/27 09:43:48;;;;;;;14.57;2.63;;;;;;;;;;5085690;28;20089;-66
2022/12/27 09:46:19;;;;;;;27.38;3.10;;;;;;;;;;5103374;28;20051;-66
2022/12/27 09:48:46;;;;;;;23.10;3.13;;;;;;;;;;5085434;28;20089;-66
2022/12/27 09:51:17;;;;;;;19.30;3.20;;;;;;;;;;5107049;28;20089;-66
2022/12/27 09:53:49;;;;;;;21.10;3.15;;;;;;;;;;5102989;28;20467;-66
2022/12/27 09:56:22;;;;;;;16.63;2.53;;;;;;;;;;5105200;28;20043;-66
2022/12/27 09:58:50;;;;;;;15.88;2.60;;;;;;;;;;5104458;28;20612;-66
2022/12/27 10:01:21;;;;;;;14.65;2.83;;;;;;;;;;5106159;28;20046;-66
2022/12/27 10:03:47;;;;;;;15.43;2.60;;;;;;;;;;5088162;28;20543;-67
2022/12/27 10:06:29;;;;;;;13.10;2.95;;;;;;;;;;5106026;28;20120;-66
2022/12/27 10:09:04;;;;;;;14.82;3.00;;;;;;;;;;5105085;28;20135;-66
2022/12/27 10:11:35;;;;;;;18.02;3.40;;;;;;;;;;5105233;28;22119;-66
2022/12/27 10:14:05;;;;;;;12.38;2.65;;;;;;;;;;5110065;28;20062;-66
2022/12/27 10:16:36;;;;;;;15.02;2.58;;;;;;;;;;5105557;28;20044;-66
2022/12/27 10:19:03;;;;;;;16.38;2.95;;;;;;;;;;5109099;28;20074;-66
2022/12/27 10:21:30;;;;;;;19.17;2.92;;;;;;;;;;5092875;28;20044;-67
2022/12/27 10:23:59;;;;;;;12.60;3.97;;;;;;;;;;5093561;28;20047;-67
2022/12/27 10:26:25;;;;;;;16.10;3.65;;;;;;;;;;5109544;28;20044;-66
2022/12/27 10:28:54;;;;;;;14.88;3.13;;;;;;;;;;5104237;28;20051;-66
2022/12/27 10:31:22;;;;;;;21.20;2.88;;;;;;;;;;5110640;28;20048;-66
2022/12/27 10:33:49;;;;;;;13.63;2.60;;;;;;;;;;5103984;28;20390;-67
2022/12/27 10:36:17;;;;;;;15.23;2.53;;;;;;;;;;5104606;28;20435;-66
2022/12/27 10:38:44;;;;;;;12.27;2.30;;;;;;;;;;5091115;28;20471;-67
2022/12/27 10:41:17;;;;;;;15.02;2.38;;;;;;;;;;5106434;28;20488;-67
2022/12/27 10:43:44;;;;;;;12.55;2.35;;;;;;;;;;5109407;28;20093;-66
2022/12/27 10:46:11;;;;;;;16.50;3.45;;;;;;;;;;5106390;28;20054;-66
2022/12/27 10:48:38;;;;;;;15.05;2.88;;;;;;;;;;5109149;28;20194;-66
2022/12/27 10:51:07;;;;;;;16.83;3.13;;;;;;;;;;5107909;28;20131;-67
2022/12/27 10:53:39;;;;;;;18.58;3.60;;;;;;;;;;5108075;28;20187;-66
2022/12/27 10:56:07;;;;;;;15.35;2.70;;;;;;;;;;5109107;28;20043;-66
2022/12/27 10:58:34;;;;;;;15.55;2.33;;;;;;;;;;5111582;28;20048;-66
2022/12/27 11:01:00;;;;;;;16.42;2.97;;;;;;;;;;5110833;28;20058;-66
2022/12/27 11:03:27;;;;;;;14.32;2.38;;;;;;;;;;5108030;28;20495;-67
2022/12/27 11:06:01;;;;;;;11.55;2.13;;;;;;;;;;5091428;28;20072;-67
2022/12/27 11:08:27;;;;;;;;;;;;;;;;;;5108009;28;20028;-66
2022/12/27 11:11:13;;;;;;;14.52;2.47;;;;;;;;;;5108562;28;20032;-66
2022/12/27 11:13:39;;;;;;;13.93;2.63;;;;;;;;;;5108286;28;20127;-67
2022/12/27 11:16:05;;;;;;;18.10;3.08;;;;;;;;;;5107595;28;20073;-66
2022/12/27 11:18:35;;;;;;;21.23;3.55;;;;;;;;;;5108608;28;20044;-67
2022/12/27 11:21:02;;;;;;;17.08;2.97;;;;;;;;;;5087138;28;20080;-66
2022/12/27 11:23:32;;;;;;;11.18;2.33;;;;;;;;;;5090631;28;20069;-67
2022/12/27 11:26:00;;;;;;;13.45;2.60;;;;;;;;;;5110057;28;20547;-67
2022/12/27 11:28:29;;;;;;;12.88;2.75;;;;;;;;;;5110488;28;20483;-66
2022/12/27 11:30:56;;;;;;;15.25;3.25;;;;;;;;;;5106051;28;20595;-66
2022/12/27 11:33:33;;;;;;;17.75;3.17;;;;;;;;;;5105743;28;20032;-66
2022/12/27 11:36:00;;;;;;;13.07;2.50;;;;;;;;;;5108508;28;20152;-67
2022/12/27 11:38:27;;;;;;;14.25;2.63;;;;;;;;;;5108445;28;20040;-67
2022/12/27 11:41:01;;;;;;;16.83;2.03;;;;;;;;;;5090746;28;20044;-67
2022/12/27 11:43:30;;;;;;;14.80;3.20;;;;;;;;;;5109004;28;20083;-67
2022/12/27 11:45:57;;;;;;;12.32;3.03;;;;;;;;;;5104606;28;20044;-67
2022/12/27 11:48:28;;;;;;;16.35;2.80;;;;;;;;;;5107268;28;20160;-67
2022/12/27 11:50:54;;;;;;;13.63;3.30;;;;;;;;;;5106922;28;20035;-67
2022/12/27 11:53:44;;;;;;;9.18;2.22;;;;;;;;;;5104453;28;20054;-67
2022/12/27 11:56:24;;;;;;;8.60;2.70;;;;;;;;;;5105376;28;20387;-67
2022/12/27 11:59:03;;;;;;;13.05;3.03;;;;;;;;;;5106658;28;20115;-67
2022/12/27 12:01:48;;;;;;;13.65;3.28;;;;;;;;;;5109101;28;20054;-67
2022/12/27 12:04:26;;;;;;;13.15;2.53;;;;;;;;;;5107165;28;20047;-67
2022/12/27 12:06:59;;;;;;;13.82;3.25;;;;;;;;;;5087313;28;20082;-67
2022/12/27 12:09:29;;;;;;;14.70;2.78;;;;;;;;;;5107449;28;20039;-67
2022/12/27 12:12:14;;;;;;;12.65;3.30;;;;;;;;;;5106458;28;20368;-67
2022/12/27 12:14:43;;;;;;;15.00;2.38;;;;;;;;;;5090308;28;20135;-67
2022/12/27 12:17:16;;;;;;;10.93;2.60;;;;;;;;;;5106870;28;20066;-67
2022/12/27 12:19:53;;;;;;;10.88;2.22;;;;;;;;;;5107047;28;20491;-67
2022/12/27 12:22:35;;;;;;;9.82;2.30;;;;;;;;;;5108701;28;20047;-67
2022/12/27 12:25:02;;;;;;;14.13;3.47;;;;;;;;;;5106408;28;20114;-67
2022/12/27 12:27:36;;;;;;;15.55;2.83;;;;;;;;;;5104977;28;20506;-67
2022/12/27 12:30:26;;;;;;;13.57;2.38;;;;;;;;;;5088198;28;20056;-67
2022/12/27 12:32:54;;;;;;;10.50;2.60;;;;;;;;;;5088076;28;20483;-67
2022/12/27 12:35:20;;;;;;;14.48;3.45;;;;;;;;;;5106351;28;20116;-67
2022/12/27 12:37:46;;;;;;;13.40;2.53;;;;;;;;;;5107702;28;20047;-67
2022/12/27 12:40:12;;;;;;;9.13;2.42;;;;;;;;;;5087750;28;20047;-67
2022/12/27 12:42:42;;;;;;;15.00;2.63;;;;;;;;;;5105835;28;20321;-66
2022/12/27 12:45:11;;;;;;;15.23;2.10;;;;;;;;;;5105885;28;20038;-67
2022/12/27 12:47:48;;;;;;;12.73;2.08;;;;;;;;;;5085902;28;20052;-67
2022/12/27 12:50:26;;;;;;;15.60;2.60;;;;;;;;;;5087976;28;20169;-67
2022/12/27 12:53:05;;;;;;;12.90;2.28;;;;;;;;;;5105174;28;20035;-67
2022/12/27 12:55:38;;;;;;;18.75;3.03;;;;;;;;;;5104435;28;20039;-67
2022/12/27 12:58:15;;;;;;;11.75;2.47;;;;;;;;;;5105274;28;20046;-67
2022/12/27 13:00:41;;;;;;;13.40;2.55;;;;;;;;;;5107691;28;20047;-67
2022/12/27 13:03:17;;;;;;;20.33;3.38;;;;;;;;;;5104014;28;20542;-67
2022/12/27 13:05:53;;;;;;;15.60;2.70;;;;;;;;;;5085508;28;20047;-67
2022/12/27 13:08:28;;;;;;;18.55;3.58;;;;;;;;;;5103840;28;20039;-67
2022/12/27 13:10:57;;;;;;;15.45;3.40;;;;;;;;;;5104299;28;20036;-67
2022/12/27 13:13:26;;;;;;;14.55;3.95;;;;;;;;;;5108307;28;20119;-67
2022/12/27 13:15:57;;;;;;;18.77;3.65;;;;;;;;;;5105337;28;20728;-66
2022/12/27 13:18:26;;;;;;;14.05;3.75;;;;;;;;;;5103227;28;20119;-67
2022/12/27 13:21:02;;;;;;;13.05;3.67;;;;;;;;;;5085378;28;20075;-67
2022/12/27 13:23:50;;;;;;;12.70;3.70;;;;;;;;;;5107237;28;20044;-67
2022/12/27 13:26:36;;;;;;;16.80;4.32;;;;;;;;;;5089580;28;20112;-67
2022/12/27 13:29:11;;;;;;;15.95;4.50;;;;;;;;;;5102703;28;20047;-67
2022/12/27 13:31:44;;;;;;;15.25;3.65;;;;;;;;;;5106504;28;20036;-66
2022/12/27 13:34:23;;;;;;;17.50;3.60;;;;;;;;;;5107164;28;20081;-67
2022/12/27 13:36:53;;;;;;;19.98;4.18;;;;;;;;;;5103196;28;20043;-67
2022/12/27 13:39:27;;;;;;;17.98;4.25;;;;;;;;;;5107262;28;20036;-66
2022/12/27 13:41:53;;;;;;;18.55;4.00;;;;;;;;;;5107567;28;20112;-67
2022/12/27 13:44:30;;;;;;;13.27;3.75;;;;;;;;;;5087217;28;20411;-67
2022/12/27 13:47:11;;;;;;;17.67;4.03;;;;;;;;;;5110264;28;20044;-66
2022/12/27 13:49:54;;;;;;;17.15;4.47;;;;;;;;;;5109134;28;20546;-66
2022/12/27 13:52:27;;;;;;;18.20;4.97;;;;;;;;;;5109107;28;20306;-67
2022/12/27 13:55:02;;;;;;;12.00;3.55;;;;;;;;;;5108407;28;20047;-66
2022/12/27 13:57:46;;;;;;;20.88;4.93;;;;;;;;;;5108167;28;20055;-67
2022/12/27 14:00:13;;;;;;;20.85;5.68;;;;;;;;;;5112024;28;20036;-67
2022/12/27 14:02:43;;;;;;;19.92;5.72;;;;;;;;;;5111431;28;20101;-67
2022/12/27 14:05:16;;;;;;;15.38;4.45;;;;;;;;;;5110888;28;20079;-67
2022/12/27 14:07:49;;;;;;;20.45;5.97;;;;;;;;;;5111687;28;20407;-67
2022/12/27 14:10:21;;;;;;;15.15;4.57;;;;;;;;;;5111478;28;20039;-67
2022/12/27 14:12:50;;;;;;;18.90;4.88;;;;;;;;;;5090766;28;20100;-67
2022/12/27 14:15:19;;;;;;;16.88;4.47;;;;;;;;;;5107696;28;20439;-66
2022/12/27 14:17:46;;;;;;;15.40;4.88;;;;;;;;;;5110769;28;20046;-67
2022/12/27 14:20:30;;;;;;;16.58;4.25;;;;;;;;;;5108162;28;20043;-67
2022/12/27 14:23:03;;;;;;;18.48;5.38;;;;;;;;;;5107825;28;20050;-67
2022/12/27 14:25:40;;;;;;;16.35;4.80;;;;;;;;;;5107969;28;20036;-67
2022/12/27 14:28:32;;;;;;;19.30;5.20;;;;;;;;;;5106606;28;20114;-67
2022/12/27 14:31:07;;;;;;;16.15;5.45;;;;;;;;;;5110657;28;20481;-67
2022/12/27 14:33:36;;;;;;;20.00;5.90;;;;;;;;;;5107323;28;20110;-67
2022/12/27 14:36:26;;;;;;;16.92;5.43;;;;;;;;;;5109092;28;20491;-67
2022/12/27 14:39:03;;;;;;;17.90;5.88;;;;;;;;;;5106471;28;20054;-66
2022/12/27 14:41:45;;;;;;;16.70;6.65;;;;;;;;;;5108797;28;20075;-66
2022/12/27 14:44:18;;;;;;;17.65;6.72;;;;;;;;;;5108252;28;20081;-66
2022/12/27 14:46:58;;;;;;;21.17;7.53;;;;;;;;;;5106583;28;21121;-67
2022/12/27 14:49:34;;;;;;;22.75;7.45;;;;;;;;;;5108588;28;20048;-67
2022/12/27 14:52:16;;;;;;;17.85;7.80;;;;;;;;;;5108103;28;20411;-67
2022/12/27 14:54:48;;;;;;;20.42;8.32;;;;;;;;;;5090914;28;21702;-67
2022/12/27 14:57:25;;;;;;;20.08;8.15;;;;;;;;;;5088755;28;20044;-65
2022/12/27 14:59:57;;;;;;;22.40;9.40;;;;;;;;;;5109230;28;20428;-65
2022/12/27 15:02:32;;;;;;;16.67;8.18;;;;;;;;;;5088979;28;20086;-65
2022/12/27 15:05:06;;;;;;;17.83;7.97;;;;;;;;;;5108140;28;20036;-65
2022/12/27 15:07:33;;;;;;;22.90;8.55;;;;;;;;;;5105842;28;20550;-65
2022/12/27 15:10:06;;;;;;;26.90;10.05;;;;;;;;;;5104333;28;20043;-66
2022/12/27 15:12:45;;;;;;;28.60;12.10;;;;;;;;;;5065093;28;20101;-67
2022/12/27 15:15:17;;;;;;;22.23;9.80;;;;;;;;;;5102240;28;20043;-67
2022/12/27 15:17:52;;;;;;;25.52;9.13;;;;;;;;;;5101315;28;20039;-68
2022/12/27 15:20:28;;;;;;;27.08;9.23;;;;;;;;;;5104189;28;20071;-71
2022/12/27 15:23:07;;;;;;;20.55;8.10;;;;;;;;;;5103830;28;20100;-74
2022/12/27 15:25:53;;;;;;;31.48;8.80;;;;;;;;;;5092099;28;20093;-74
2022/12/27 15:28:19;;;;;;;26.55;9.48;;;;;;;;;;5092872;28;20097;-74
2022/12/27 15:30:58;;;;;;;19.92;9.15;;;;;;;;;;5106540;28;20114;-87
2022/12/27 15:33:25;;;;;;;20.00;9.23;;;;;;;;;;5103539;28;20050;-74
2022/12/27 15:35:55;;;;;;;26.15;9.57;;;;;;;;;;5105065;28;20044;-75
2022/12/27 15:38:33;;;;;;;23.95;10.25;;;;;;;;;;5103930;28;20047;-74
2022/12/27 15:41:06;;;;;;;20.98;9.43;;;;;;;;;;5100945;28;20483;-74
2022/12/27 15:43:45;;;;;;;23.55;11.45;;;;;;;;;;5098911;28;20130;-73
2022/12/27 15:46:31;;;;;;;19.05;10.75;;;;;;;;;;5082789;28;20075;-70
2022/12/27 15:49:05;;;;;;;21.80;10.05;;;;;;;;;;5101023;28;20375;-68
2022/12/27 15:51:31;;;;;;;23.00;11.02;;;;;;;;;;5101802;28;20407;-74
2022/12/27 15:54:14;;;;;;;21.80;9.32;;;;;;;;;;5102081;28;20048;-73
2022/12/27 15:56:50;;;;;;;21.00;9.95;;;;;;;;;;5105659;28;20059;-71
2022/12/27 15:59:31;;;;;;;23.30;10.52;;;;;;;;;;5104660;28;20510;-70
2022/12/27 16:02:16;;;;;;;19.67;10.85;;;;;;;;;;5108157;28;20118;-71
2022/12/27 16:04:52;;;;;;;26.52;11.57;;;;;;;;;;5098795;28;20036;-72
2022/12/27 16:07:39;;;;;;;19.95;11.48;;;;;;;;;;5105480;28;20494;-71
2022/12/27 16:10:38;;;;;;;30.70;13.10;;;;;;;;;;5102390;28;20052;-70
2022/12/27 16:13:04;;;;;;;26.55;11.45;;;;;;;;;;5088825;27;20127;-73
2022/12/27 16:15:33;;;;;;;20.90;11.05;;;;;;;;;;5090779;28;20050;-70
2022/12/27 16:18:00;;;;;;;24.02;12.82;;;;;;;;;;5091172;28;20050;-68
2022/12/27 16:20:27;;;;;;;26.38;12.27;;;;;;;;;;5086702;28;20065;-68